EST,Max TemperatureF,Mean TemperatureF,Min TemperatureF,Max Dew PointF,MeanDew PointF,Min DewpointF,Max Humidity, Mean Humidity, Min Humidity, Max Sea Level PressureIn, Mean Sea Level PressureIn, Min Sea Level PressureIn, Max VisibilityMiles, Mean VisibilityMiles, Min VisibilityMiles, Max Wind SpeedMPH, Mean Wind SpeedMPH, Max Gust SpeedMPH,PrecipitationIn, CloudCover, Events, WindDirDegrees
2013-2-1,-4,-9,-14,-4,-9,-15,100,100,100,,,,0,0,0,96,77,102,0.15,,Fog-Snow,292
2013-2-2,-4,-10,-16,-4,-11,-26,100,94,49,,,,4,0,0,63,46,75,0.08,6,Fog-Snow,272
2013-2-3,1,-3,-7,1,-7,-24,100,85,38,,,,1,0,0,21,14,,0.00,3,Fog-Snow,258
2013-2-4,-4,-10,-18,-4,-9,-18,100,99,84,,,,10,0,0,74,47,81,0.28,8,Fog-Snow,298
2013-2-5,0,-9,-18,0,-19,-36,100,68,24,,,,0,0,0,70,54,75,0.02,4,Fog-Snow,276
2013-2-6,5,-6,-16,5,-6,-27,100,91,58,,,,0,0,0,76,50,86,0.08,1,Fog-Snow,284
2013-2-7,3,-8,-18,-2,-22,-47,100,58,13,,,,15,3,0,79,56,84,0.02,4,Fog-Snow,306
2013-2-8,1,0,-2,1,0,-2,100,100,100,,,,0,0,0,51,29,53,0.60,,Fog-Snow,166
2013-2-9,5,-2,-9,5,-4,-9,100,100,100,,,,0,0,0,69,54,81,0.45,,Fog-Snow,25
2013-2-10,19,10,0,-6,-20,-35,43,27,11,,,,,,,68,51,76,0.00,2,,331
2013-2-11,26,20,15,27,12,-11,100,79,25,,,,2,0,0,61,37,70,0.32,5,Fog-Snow,237
2013-2-12,15,12,8,16,12,9,100,100,100,,,,0,0,0,81,65,89,0.06,,Fog-Snow,291
2013-2-13,10,8,5,10,8,5,100,100,100,,,,0,0,0,64,40,70,0.02,,Fog-Snow,307
2013-2-14,14,10,5,9,3,-9,100,78,35,,,,0,0,0,31,18,33,0.00,3,Fog-Snow,291
2013-2-15,17,14,10,18,14,7,100,98,79,,,,0,0,0,51,33,56,0.04,7,Fog-Snow,259
2013-2-16,12,8,1,10,1,-15,100,76,37,,,,20,2,0,37,23,45,0.03,7,Fog-Snow,285
2013-2-17,3,-6,-16,0,-8,-17,100,94,72,,,,10,2,0,85,39,97,0.60,8,Fog-Snow,335
2013-2-18,8,-4,-14,-8,-14,-24,100,78,26,,,,0,0,0,114,90,127,0.00,1,Fog-Snow,317
2013-2-19,26,18,10,23,11,-17,100,77,25,,,,2,0,0,56,44,61,0.11,6,Fog-Snow,240
2013-2-20,19,8,-2,19,5,-2,100,100,100,,,,0,0,0,86,41,98,0.50,,Fog-Snow,293
2013-2-21,6,-2,-9,7,1,-9,100,100,100,,,,0,0,0,75,54,84,0.19,6,Fog-Snow,346
2013-2-22,23,16,10,9,-8,-24,85,35,15,,,,,,,38,25,51,0.00,4,,87
2013-2-23,21,16,12,21,14,-8,100,92,38,,,,20,2,0,30,24,34,0.08,7,Fog-Snow,230
2013-2-24,24,18,12,25,18,12,100,100,100,,,,0,0,0,33,17,34,0.39,,Fog-Snow,317
2013-2-25,15,14,10,16,13,9,100,96,79,,,,0,0,0,38,22,43,0.02,1,Fog-Snow,1
2013-2-26,24,17,10,18,12,5,100,92,43,,,,20,1,0,20,10,,0.00,6,Fog,200
2013-2-27,21,16,10,18,14,7,100,95,54,,,,0,0,0,75,41,85,1.51,7,Fog-Snow,133
2013-2-28,24,18,12,25,18,12,100,95,74,,,,0,0,0,48,23,59,0.13,7,Fog-Snow,14